sensor_id;sensor_type;location;lat;lon;timestamp;temperature;humidity
2439;DHT22;14509;47.992;7.848;2023-03-01T00:00:40;3.60;49.40
2439;DHT22;14509;47.992;7.848;2023-03-01T00:02:47;3.50;49.30
2439;DHT22;14509;47.992;7.848;2023-03-01T00:04:49;3.50;49.30
2439;DHT22;14509;47.992;7.848;2023-03-01T00:06:51;3.80;49.50
2439;DHT22;14509;47.992;7.848;2023-03-01T00:08:54;3.50;49.20
2439;DHT22;14509;47.992;7.848;2023-03-01T00:11:00;3.50;49.10
2439;DHT22;14509;47.992;7.848;2023-03-01T00:13:03;3.50;49.30
2439;DHT22;14509;47.992;7.848;2023-03-01T00:15:06;3.50;49.20
2439;DHT22;14509;47.992;7.848;2023-03-01T00:17:08;3.50;49.30
2439;DHT22;14509;47.992;7.848;2023-03-01T00:19:12;3.40;49.10
2439;DHT22;14509;47.992;7.848;2023-03-01T00:21:15;3.70;49.50
2439;DHT22;14509;47.992;7.848;2023-03-01T00:23:17;3.40;49.40
2439;DHT22;14509;47.992;7.848;2023-03-01T00:25:21;3.00;49.00
2439;DHT22;14509;47.992;7.848;2023-03-01T00:27:23;3.40;49.50
2439;DHT22;14509;47.992;7.848;2023-03-01T00:29:25;3.40;49.50
2439;DHT22;14509;47.992;7.848;2023-03-01T00:31:29;3.40;49.50
2439;DHT22;14509;47.992;7.848;2023-03-01T00:33:32;3.40;49.60
2439;DHT22;14509;47.992;7.848;2023-03-01T00:35:34;3.40;49.60
2439;DHT22;14509;47.992;7.848;2023-03-01T00:37:36;3.40;49.80
2439;DHT22;14509;47.992;7.848;2023-03-01T00:39:38;3.40;49.70
2439;DHT22;14509;47.992;7.848;2023-03-01T00:41:42;3.40;50.40
2439;DHT22;14509;47.992;7.848;2023-03-01T00:43:45;3.40;49.90
2439;DHT22;14509;47.992;7.848;2023-03-01T00:45:47;3.40;49.70
2439;DHT22;14509;47.992;7.848;2023-03-01T00:47:49;3.40;49.70
2439;DHT22;14509;47.992;7.848;2023-03-01T00:49:52;3.40;49.80
2439;DHT22;14509;47.992;7.848;2023-03-01T00:51:54;3.80;49.90
2439;DHT22;14509;47.992;7.848;2023-03-01T00:53:59;3.60;49.80
2439;DHT22;14509;47.992;7.848;2023-03-01T00:56:01;3.40;49.80
2439;DHT22;14509;47.992;7.848;2023-03-01T00:58:05;4.10;50.30
2439;DHT22;14509;47.992;7.848;2023-03-01T01:00:08;3.40;49.70
2439;DHT22;14509;47.992;7.848;2023-03-01T01:02:11;3.40;49.80
2439;DHT22;14509;47.992;7.848;2023-03-01T01:04:13;3.30;49.70
2439;DHT22;14509;47.992;7.848;2023-03-01T01:06:17;3.30;49.70
2439;DHT22;14509;47.992;7.848;2023-03-01T01:08:20;3.30;50.40
2439;DHT22;14509;47.992;7.848;2023-03-01T01:10:22;3.30;50.00
2439;DHT22;14509;47.992;7.848;2023-03-01T01:12:24;3.30;50.00
2439;DHT22;14509;47.992;7.848;2023-03-01T01:14:27;3.30;50.00
2439;DHT22;14509;47.992;7.848;2023-03-01T01:16:30;3.20;49.80
2439;DHT22;14509;47.992;7.848;2023-03-01T01:18:32;3.20;49.70
2439;DHT22;14509;47.992;7.848;2023-03-01T01:20:35;3.30;49.70
2439;DHT22;14509;47.992;7.848;2023-03-01T01:22:37;3.20;49.70
2439;DHT22;14509;47.992;7.848;2023-03-01T01:24:39;3.20;49.90
2439;DHT22;14509;47.992;7.848;2023-03-01T01:26:41;3.20;50.20
2439;DHT22;14509;47.992;7.848;2023-03-01T01:28:44;3.10;50.10
2439;DHT22;14509;47.992;7.848;2023-03-01T01:30:47;3.10;50.10
2439;DHT22;14509;47.992;7.848;2023-03-01T01:32:49;3.60;50.50
2439;DHT22;14509;47.992;7.848;2023-03-01T01:34:51;3.20;50.40
2439;DHT22;14509;47.992;7.848;2023-03-01T01:36:53;3.20;50.70
2439;DHT22;14509;47.992;7.848;2023-03-01T01:38:56;3.10;50.60
2439;DHT22;14509;47.992;7.848;2023-03-01T01:40:58;3.20;50.60
2439;DHT22;14509;47.992;7.848;2023-03-01T01:42:59;3.10;50.50
2439;DHT22;14509;47.992;7.848;2023-03-01T01:45:30;3.10;50.60
2439;DHT22;14509;47.992;7.848;2023-03-01T01:47:34;3.20;50.60
2439;DHT22;14509;47.992;7.848;2023-03-01T01:49:38;3.10;50.50
2439;DHT22;14509;47.992;7.848;2023-03-01T01:51:44;3.10;50.50
2439;DHT22;14509;47.992;7.848;2023-03-01T01:53:52;3.10;50.40
2439;DHT22;14509;47.992;7.848;2023-03-01T01:55:57;3.10;50.40
2439;DHT22;14509;47.992;7.848;2023-03-01T01:58:02;3.00;50.30
2439;DHT22;14509;47.992;7.848;2023-03-01T02:00:09;3.00;50.80
2439;DHT22;14509;47.992;7.848;2023-03-01T02:02:14;3.00;50.90
2439;DHT22;14509;47.992;7.848;2023-03-01T02:04:18;3.00;50.90
2439;DHT22;14509;47.992;7.848;2023-03-01T02:06:27;3.00;51.00
2439;DHT22;14509;47.992;7.848;2023-03-01T02:08:33;3.00;51.10
2439;DHT22;14509;47.992;7.848;2023-03-01T02:10:37;2.90;50.90
2439;DHT22;14509;47.992;7.848;2023-03-01T02:12:40;3.10;51.60
2439;DHT22;14509;47.992;7.848;2023-03-01T02:14:42;3.00;50.80
2439;DHT22;14509;47.992;7.848;2023-03-01T02:16:44;2.90;50.70
2439;DHT22;14509;47.992;7.848;2023-03-01T02:18:46;2.90;50.80
2439;DHT22;14509;47.992;7.848;2023-03-01T02:20:59;2.90;50.70
2439;DHT22;14509;47.992;7.848;2023-03-01T02:23:03;2.90;50.80
2439;DHT22;14509;47.992;7.848;2023-03-01T02:25:20;2.90;50.60
2439;DHT22;14509;47.992;7.848;2023-03-01T02:27:23;2.90;50.50
2439;DHT22;14509;47.992;7.848;2023-03-01T02:29:29;2.80;50.30
2439;DHT22;14509;47.992;7.848;2023-03-01T02:31:30;2.80;50.20
2439;DHT22;14509;47.992;7.848;2023-03-01T02:33:45;2.80;50.20
2439;DHT22;14509;47.992;7.848;2023-03-01T02:35:48;2.80;50.20
2439;DHT22;14509;47.992;7.848;2023-03-01T02:37:50;2.70;50.10
2439;DHT22;14509;47.992;7.848;2023-03-01T02:39:56;2.70;50.20
2439;DHT22;14509;47.992;7.848;2023-03-01T02:42:02;2.70;50.30
2439;DHT22;14509;47.992;7.848;2023-03-01T02:44:05;2.70;50.60
2439;DHT22;14509;47.992;7.848;2023-03-01T02:46:14;2.60;51.00
2439;DHT22;14509;47.992;7.848;2023-03-01T02:48:17;2.70;51.40
2439;DHT22;14509;47.992;7.848;2023-03-01T02:50:39;2.80;51.40
2439;DHT22;14509;47.992;7.848;2023-03-01T02:52:48;2.70;51.40
2439;DHT22;14509;47.992;7.848;2023-03-01T02:54:57;2.70;51.30
2439;DHT22;14509;47.992;7.848;2023-03-01T02:57:00;2.70;51.20
2439;DHT22;14509;47.992;7.848;2023-03-01T02:59:05;2.70;51.10
2439;DHT22;14509;47.992;7.848;2023-03-01T03:01:10;2.70;51.20
2439;DHT22;14509;47.992;7.848;2023-03-01T03:03:13;2.70;51.60
2439;DHT22;14509;47.992;7.848;2023-03-01T03:05:18;2.70;51.70
2439;DHT22;14509;47.992;7.848;2023-03-01T03:07:22;2.70;51.60
2439;DHT22;14509;47.992;7.848;2023-03-01T03:09:24;2.70;51.60
2439;DHT22;14509;47.992;7.848;2023-03-01T03:11:26;2.70;51.50
2439;DHT22;14509;47.992;7.848;2023-03-01T03:13:28;2.70;51.30
2439;DHT22;14509;47.992;7.848;2023-03-01T03:15:31;2.70;51.20
2439;DHT22;14509;47.992;7.848;2023-03-01T03:17:38;2.70;51.20
2439;DHT22;14509;47.992;7.848;2023-03-01T03:19:41;2.70;51.40
2439;DHT22;14509;47.992;7.848;2023-03-01T03:21:46;2.70;51.60
2439;DHT22;14509;47.992;7.848;2023-03-01T03:23:48;2.70;51.70
2439;DHT22;14509;47.992;7.848;2023-03-01T03:25:50;2.70;51.60
2439;DHT22;14509;47.992;7.848;2023-03-01T03:27:53;2.60;51.60
2439;DHT22;14509;47.992;7.848;2023-03-01T03:29:58;2.70;51.60
2439;DHT22;14509;47.992;7.848;2023-03-01T03:32:00;2.70;51.50
2439;DHT22;14509;47.992;7.848;2023-03-01T03:34:03;2.70;51.50
2439;DHT22;14509;47.992;7.848;2023-03-01T03:36:05;2.70;51.50
2439;DHT22;14509;47.992;7.848;2023-03-01T03:38:10;2.60;51.50
2439;DHT22;14509;47.992;7.848;2023-03-01T03:40:16;2.70;51.80
2439;DHT22;14509;47.992;7.848;2023-03-01T03:42:17;2.70;51.80
2439;DHT22;14509;47.992;7.848;2023-03-01T03:44:20;2.70;51.90
2439;DHT22;14509;47.992;7.848;2023-03-01T03:46:21;2.80;51.90
2439;DHT22;14509;47.992;7.848;2023-03-01T03:48:24;2.90;52.30
2439;DHT22;14509;47.992;7.848;2023-03-01T03:50:27;3.00;51.50
2439;DHT22;14509;47.992;7.848;2023-03-01T03:52:29;3.10;51.30
2439;DHT22;14509;47.992;7.848;2023-03-01T03:54:31;3.20;51.30
2439;DHT22;14509;47.992;7.848;2023-03-01T03:56:33;3.30;51.10
2439;DHT22;14509;47.992;7.848;2023-03-01T03:58:36;3.30;50.80
2439;DHT22;14509;47.992;7.848;2023-03-01T04:00:40;3.40;50.70
2439;DHT22;14509;47.992;7.848;2023-03-01T04:02:43;3.50;50.60
2439;DHT22;14509;47.992;7.848;2023-03-01T04:04:45;3.50;50.30
2439;DHT22;14509;47.992;7.848;2023-03-01T04:06:48;3.60;50.20
2439;DHT22;14509;47.992;7.848;2023-03-01T04:08:50;3.70;50.00
2439;DHT22;14509;47.992;7.848;2023-03-01T04:11:01;3.70;49.80
2439;DHT22;14509;47.992;7.848;2023-03-01T04:13:24;3.80;49.70
2439;DHT22;14509;47.992;7.848;2023-03-01T04:15:27;3.80;49.50
2439;DHT22;14509;47.992;7.848;2023-03-01T04:17:29;3.80;49.40
2439;DHT22;14509;47.992;7.848;2023-03-01T04:19:31;3.80;49.20
2439;DHT22;14509;47.992;7.848;2023-03-01T04:21:36;3.90;49.30
2439;DHT22;14509;47.992;7.848;2023-03-01T04:23:39;3.90;49.10
2439;DHT22;14509;47.992;7.848;2023-03-01T04:25:45;3.90;49.00
2439;DHT22;14509;47.992;7.848;2023-03-01T04:27:49;3.90;49.10
2439;DHT22;14509;47.992;7.848;2023-03-01T04:29:51;4.00;49.00
2439;DHT22;14509;47.992;7.848;2023-03-01T04:31:53;4.00;49.00
2439;DHT22;14509;47.992;7.848;2023-03-01T04:33:55;4.10;49.00
2439;DHT22;14509;47.992;7.848;2023-03-01T04:35:57;4.10;48.90
2439;DHT22;14509;47.992;7.848;2023-03-01T04:37:59;4.10;48.70
2439;DHT22;14509;47.992;7.848;2023-03-01T04:40:03;4.10;48.70
2439;DHT22;14509;47.992;7.848;2023-03-01T04:42:13;4.10;48.70
2439;DHT22;14509;47.992;7.848;2023-03-01T04:44:15;4.20;48.60
2439;DHT22;14509;47.992;7.848;2023-03-01T04:46:19;4.20;48.40
2439;DHT22;14509;47.992;7.848;2023-03-01T04:48:21;4.30;48.40
2439;DHT22;14509;47.992;7.848;2023-03-01T04:50:23;4.30;48.20
2439;DHT22;14509;47.992;7.848;2023-03-01T04:52:26;4.30;48.10
2439;DHT22;14509;47.992;7.848;2023-03-01T04:54:27;4.40;48.00
2439;DHT22;14509;47.992;7.848;2023-03-01T04:56:31;4.40;48.00
2439;DHT22;14509;47.992;7.848;2023-03-01T04:58:32;4.40;47.90
2439;DHT22;14509;47.992;7.848;2023-03-01T05:00:35;4.40;47.70
2439;DHT22;14509;47.992;7.848;2023-03-01T05:02:36;4.40;47.50
2439;DHT22;14509;47.992;7.848;2023-03-01T05:04:38;4.50;47.50
2439;DHT22;14509;47.992;7.848;2023-03-01T05:06:40;4.50;47.40
2439;DHT22;14509;47.992;7.848;2023-03-01T05:08:42;4.50;47.40
2439;DHT22;14509;47.992;7.848;2023-03-01T05:10:45;4.50;47.50
2439;DHT22;14509;47.992;7.848;2023-03-01T05:12:48;4.60;47.50
2439;DHT22;14509;47.992;7.848;2023-03-01T05:14:52;4.60;47.30
2439;DHT22;14509;47.992;7.848;2023-03-01T05:16:54;4.60;47.10
2439;DHT22;14509;47.992;7.848;2023-03-01T05:18:58;4.70;47.10
2439;DHT22;14509;47.992;7.848;2023-03-01T05:21:03;4.60;47.00
2439;DHT22;14509;47.992;7.848;2023-03-01T05:23:06;4.60;47.00
2439;DHT22;14509;47.992;7.848;2023-03-01T05:25:08;4.60;47.00
2439;DHT22;14509;47.992;7.848;2023-03-01T05:27:09;4.60;46.90
2439;DHT22;14509;47.992;7.848;2023-03-01T05:29:13;4.70;46.90
2439;DHT22;14509;47.992;7.848;2023-03-01T05:31:15;4.60;46.90
2439;DHT22;14509;47.992;7.848;2023-03-01T05:33:17;4.70;47.00
2439;DHT22;14509;47.992;7.848;2023-03-01T05:35:19;4.70;46.90
2439;DHT22;14509;47.992;7.848;2023-03-01T05:37:21;4.70;46.80
2439;DHT22;14509;47.992;7.848;2023-03-01T05:39:25;4.70;46.70
2439;DHT22;14509;47.992;7.848;2023-03-01T05:41:27;4.60;46.70
2439;DHT22;14509;47.992;7.848;2023-03-01T05:43:30;4.60;46.60
2439;DHT22;14509;47.992;7.848;2023-03-01T05:45:36;4.60;46.70
2439;DHT22;14509;47.992;7.848;2023-03-01T05:47:39;4.50;46.70
2439;DHT22;14509;47.992;7.848;2023-03-01T05:49:43;4.50;46.80
2439;DHT22;14509;47.992;7.848;2023-03-01T05:51:48;4.50;46.80
2439;DHT22;14509;47.992;7.848;2023-03-01T05:53:51;4.50;46.90
2439;DHT22;14509;47.992;7.848;2023-03-01T05:55:52;4.50;46.90
2439;DHT22;14509;47.992;7.848;2023-03-01T05:57:54;4.50;47.00
2439;DHT22;14509;47.992;7.848;2023-03-01T05:59:56;4.50;47.00
2439;DHT22;14509;47.992;7.848;2023-03-01T06:01:59;4.50;47.00
2439;DHT22;14509;47.992;7.848;2023-03-01T06:04:01;4.60;47.10
2439;DHT22;14509;47.992;7.848;2023-03-01T06:06:03;4.50;46.90
2439;DHT22;14509;47.992;7.848;2023-03-01T06:08:06;4.60;46.90
2439;DHT22;14509;47.992;7.848;2023-03-01T06:10:09;4.60;46.90
2439;DHT22;14509;47.992;7.848;2023-03-01T06:12:11;4.60;46.80
2439;DHT22;14509;47.992;7.848;2023-03-01T06:14:13;4.60;46.90
2439;DHT22;14509;47.992;7.848;2023-03-01T06:16:15;4.60;46.90
2439;DHT22;14509;47.992;7.848;2023-03-01T06:18:18;4.60;46.90
2439;DHT22;14509;47.992;7.848;2023-03-01T06:20:22;4.60;46.70
2439;DHT22;14509;47.992;7.848;2023-03-01T06:22:24;4.60;46.70
2439;DHT22;14509;47.992;7.848;2023-03-01T06:24:26;4.60;46.70
2439;DHT22;14509;47.992;7.848;2023-03-01T06:26:29;4.60;46.70
2439;DHT22;14509;47.992;7.848;2023-03-01T06:28:31;4.60;46.60
2439;DHT22;14509;47.992;7.848;2023-03-01T06:30:32;4.60;46.70
2439;DHT22;14509;47.992;7.848;2023-03-01T06:32:34;4.60;46.70
2439;DHT22;14509;47.992;7.848;2023-03-01T06:34:37;4.60;46.60
2439;DHT22;14509;47.992;7.848;2023-03-01T06:36:40;4.60;46.60
2439;DHT22;14509;47.992;7.848;2023-03-01T06:38:41;4.60;46.80
2439;DHT22;14509;47.992;7.848;2023-03-01T06:40:43;4.90;47.10
2439;DHT22;14509;47.992;7.848;2023-03-01T06:42:48;4.60;46.90
2439;DHT22;14509;47.992;7.848;2023-03-01T06:44:50;4.60;47.00
2439;DHT22;14509;47.992;7.848;2023-03-01T06:46:52;4.60;47.00
2439;DHT22;14509;47.992;7.848;2023-03-01T06:48:54;4.60;47.00
2439;DHT22;14509;47.992;7.848;2023-03-01T06:50:59;4.60;46.90
2439;DHT22;14509;47.992;7.848;2023-03-01T06:53:02;4.60;46.90
2439;DHT22;14509;47.992;7.848;2023-03-01T06:55:05;4.70;47.00
2439;DHT22;14509;47.992;7.848;2023-03-01T06:57:07;4.70;47.10
2439;DHT22;14509;47.992;7.848;2023-03-01T06:59:09;4.70;47.20
2439;DHT22;14509;47.992;7.848;2023-03-01T07:01:11;4.70;47.10
2439;DHT22;14509;47.992;7.848;2023-03-01T07:03:13;4.70;47.00
2439;DHT22;14509;47.992;7.848;2023-03-01T07:05:15;4.80;47.60
2439;DHT22;14509;47.992;7.848;2023-03-01T07:07:18;4.80;47.60
2439;DHT22;14509;47.992;7.848;2023-03-01T07:09:21;4.80;46.90
2439;DHT22;14509;47.992;7.848;2023-03-01T07:11:22;4.90;47.00
2439;DHT22;14509;47.992;7.848;2023-03-01T07:13:24;4.90;46.90
2439;DHT22;14509;47.992;7.848;2023-03-01T07:15:27;5.00;46.90
2439;DHT22;14509;47.992;7.848;2023-03-01T07:17:29;5.00;46.90
2439;DHT22;14509;47.992;7.848;2023-03-01T07:19:31;5.10;46.70
2439;DHT22;14509;47.992;7.848;2023-03-01T07:21:33;5.10;46.50
2439;DHT22;14509;47.992;7.848;2023-03-01T07:23:36;5.10;46.40
2439;DHT22;14509;47.992;7.848;2023-03-01T07:25:38;5.10;46.50
2439;DHT22;14509;47.992;7.848;2023-03-01T07:27:40;5.20;46.50
2439;DHT22;14509;47.992;7.848;2023-03-01T07:29:41;5.20;46.60
2439;DHT22;14509;47.992;7.848;2023-03-01T07:31:43;5.20;46.50
2439;DHT22;14509;47.992;7.848;2023-03-01T07:33:45;5.20;46.20
2439;DHT22;14509;47.992;7.848;2023-03-01T07:35:47;5.30;46.20
2439;DHT22;14509;47.992;7.848;2023-03-01T07:37:49;5.30;46.20
2439;DHT22;14509;47.992;7.848;2023-03-01T07:39:52;5.40;46.10
2439;DHT22;14509;47.992;7.848;2023-03-01T07:41:54;5.30;46.00
2439;DHT22;14509;47.992;7.848;2023-03-01T07:43:57;5.50;46.10
2439;DHT22;14509;47.992;7.848;2023-03-01T07:45:59;5.40;45.90
2439;DHT22;14509;47.992;7.848;2023-03-01T07:48:02;5.50;45.90
2439;DHT22;14509;47.992;7.848;2023-03-01T07:50:04;5.50;45.90
2439;DHT22;14509;47.992;7.848;2023-03-01T07:52:06;5.50;46.00
2439;DHT22;14509;47.992;7.848;2023-03-01T07:54:10;5.60;46.60
2439;DHT22;14509;47.992;7.848;2023-03-01T07:56:15;5.60;45.80
2439;DHT22;14509;47.992;7.848;2023-03-01T07:58:18;5.70;45.80
2439;DHT22;14509;47.992;7.848;2023-03-01T08:00:21;5.70;45.60
2439;DHT22;14509;47.992;7.848;2023-03-01T08:02:23;5.80;45.60
2439;DHT22;14509;47.992;7.848;2023-03-01T08:04:25;5.80;45.50
2439;DHT22;14509;47.992;7.848;2023-03-01T08:06:27;5.80;45.40
2439;DHT22;14509;47.992;7.848;2023-03-01T08:08:29;5.90;45.50
2439;DHT22;14509;47.992;7.848;2023-03-01T08:10:31;6.00;45.50
2439;DHT22;14509;47.992;7.848;2023-03-01T08:12:35;6.10;45.40
2439;DHT22;14509;47.992;7.848;2023-03-01T08:14:37;6.20;45.20
2439;DHT22;14509;47.992;7.848;2023-03-01T08:16:39;6.20;45.00
2439;DHT22;14509;47.992;7.848;2023-03-01T08:18:41;6.20;44.70
2439;DHT22;14509;47.992;7.848;2023-03-01T08:20:44;6.10;44.60
2439;DHT22;14509;47.992;7.848;2023-03-01T08:22:45;6.20;44.60
2439;DHT22;14509;47.992;7.848;2023-03-01T08:24:48;6.20;44.60
2439;DHT22;14509;47.992;7.848;2023-03-01T08:26:50;6.20;44.60
2439;DHT22;14509;47.992;7.848;2023-03-01T08:28:53;6.30;44.70
2439;DHT22;14509;47.992;7.848;2023-03-01T08:30:55;6.30;44.90
2439;DHT22;14509;47.992;7.848;2023-03-01T08:32:57;6.40;44.90
2439;DHT22;14509;47.992;7.848;2023-03-01T08:34:59;6.50;44.90
2439;DHT22;14509;47.992;7.848;2023-03-01T08:37:01;6.60;44.50
2439;DHT22;14509;47.992;7.848;2023-03-01T08:39:03;6.70;44.40
2439;DHT22;14509;47.992;7.848;2023-03-01T08:41:05;6.90;44.40
2439;DHT22;14509;47.992;7.848;2023-03-01T08:43:07;6.80;44.60
2439;DHT22;14509;47.992;7.848;2023-03-01T08:45:11;6.90;44.00
2439;DHT22;14509;47.992;7.848;2023-03-01T08:47:14;7.00;43.50
2439;DHT22;14509;47.992;7.848;2023-03-01T08:49:18;7.00;43.50
2439;DHT22;14509;47.992;7.848;2023-03-01T08:51:21;7.10;43.40
2439;DHT22;14509;47.992;7.848;2023-03-01T08:53:23;7.20;43.20
2439;DHT22;14509;47.992;7.848;2023-03-01T08:55:25;7.30;43.20
2439;DHT22;14509;47.992;7.848;2023-03-01T08:57:27;7.40;43.00
2439;DHT22;14509;47.992;7.848;2023-03-01T08:59:29;7.50;42.90
2439;DHT22;14509;47.992;7.848;2023-03-01T09:01:37;7.60;42.80
2439;DHT22;14509;47.992;7.848;2023-03-01T09:03:40;7.70;42.60
2439;DHT22;14509;47.992;7.848;2023-03-01T09:05:43;7.80;42.40
2439;DHT22;14509;47.992;7.848;2023-03-01T09:07:46;7.90;42.10
2439;DHT22;14509;47.992;7.848;2023-03-01T09:09:48;8.10;41.90
2439;DHT22;14509;47.992;7.848;2023-03-01T09:11:53;8.10;41.50
2439;DHT22;14509;47.992;7.848;2023-03-01T09:13:55;8.20;41.60
2439;DHT22;14509;47.992;7.848;2023-03-01T09:15:58;8.40;41.40
2439;DHT22;14509;47.992;7.848;2023-03-01T09:18:01;8.50;41.00
2439;DHT22;14509;47.992;7.848;2023-03-01T09:20:03;8.60;40.90
2439;DHT22;14509;47.992;7.848;2023-03-01T09:22:06;8.70;40.60
2439;DHT22;14509;47.992;7.848;2023-03-01T09:24:13;8.80;40.50
2439;DHT22;14509;47.992;7.848;2023-03-01T09:26:16;8.90;40.20
2439;DHT22;14509;47.992;7.848;2023-03-01T09:28:19;8.90;39.90
2439;DHT22;14509;47.992;7.848;2023-03-01T09:30:23;9.40;39.90
2439;DHT22;14509;47.992;7.848;2023-03-01T09:32:25;8.90;39.40
2439;DHT22;14509;47.992;7.848;2023-03-01T09:34:29;8.80;39.60
2439;DHT22;14509;47.992;7.848;2023-03-01T09:36:31;8.90;39.90
2439;DHT22;14509;47.992;7.848;2023-03-01T09:38:33;8.90;39.80
2439;DHT22;14509;47.992;7.848;2023-03-01T09:40:35;8.90;39.40
2439;DHT22;14509;47.992;7.848;2023-03-01T09:42:46;9.00;39.50
2439;DHT22;14509;47.992;7.848;2023-03-01T09:44:52;9.00;39.70
2439;DHT22;14509;47.992;7.848;2023-03-01T09:46:55;9.00;39.30
2439;DHT22;14509;47.992;7.848;2023-03-01T09:49:02;9.00;39.40
2439;DHT22;14509;47.992;7.848;2023-03-01T09:51:12;9.10;39.40
2439;DHT22;14509;47.992;7.848;2023-03-01T09:53:18;9.40;39.70
2439;DHT22;14509;47.992;7.848;2023-03-01T09:55:26;9.20;39.30
2439;DHT22;14509;47.992;7.848;2023-03-01T09:57:33;9.20;38.80
2439;DHT22;14509;47.992;7.848;2023-03-01T09:59:56;9.20;39.00
2439;DHT22;14509;47.992;7.848;2023-03-01T10:02:16;9.20;38.80
2439;DHT22;14509;47.992;7.848;2023-03-01T10:04:27;9.30;39.10
2439;DHT22;14509;47.992;7.848;2023-03-01T10:06:31;9.30;38.70
2439;DHT22;14509;47.992;7.848;2023-03-01T10:08:38;9.40;39.00
2439;DHT22;14509;47.992;7.848;2023-03-01T10:10:44;9.70;38.70
2439;DHT22;14509;47.992;7.848;2023-03-01T10:12:48;9.50;38.60
2439;DHT22;14509;47.992;7.848;2023-03-01T10:14:55;10.10;37.90
2439;DHT22;14509;47.992;7.848;2023-03-01T10:17:02;9.70;38.50
2439;DHT22;14509;47.992;7.848;2023-03-01T10:19:06;10.00;37.50
2439;DHT22;14509;47.992;7.848;2023-03-01T10:21:14;9.70;38.30
2439;DHT22;14509;47.992;7.848;2023-03-01T10:23:19;9.90;38.50
2439;DHT22;14509;47.992;7.848;2023-03-01T10:25:31;9.90;38.30
2439;DHT22;14509;47.992;7.848;2023-03-01T10:27:43;10.10;36.90
2439;DHT22;14509;47.992;7.848;2023-03-01T10:29:52;10.20;36.70
2439;DHT22;14509;47.992;7.848;2023-03-01T10:31:56;10.30;36.60
2439;DHT22;14509;47.992;7.848;2023-03-01T10:33:59;10.30;36.20
2439;DHT22;14509;47.992;7.848;2023-03-01T10:36:02;10.40;36.20
2439;DHT22;14509;47.992;7.848;2023-03-01T10:38:06;10.50;36.10
2439;DHT22;14509;47.992;7.848;2023-03-01T10:40:10;10.70;36.40
2439;DHT22;14509;47.992;7.848;2023-03-01T10:42:21;10.80;35.80
2439;DHT22;14509;47.992;7.848;2023-03-01T10:44:43;10.90;35.70
2439;DHT22;14509;47.992;7.848;2023-03-01T10:46:45;11.10;35.60
2439;DHT22;14509;47.992;7.848;2023-03-01T10:49:12;10.90;36.10
2439;DHT22;14509;47.992;7.848;2023-03-01T10:51:17;10.90;35.80
2439;DHT22;14509;47.992;7.848;2023-03-01T10:53:26;10.90;35.70
2439;DHT22;14509;47.992;7.848;2023-03-01T10:55:35;11.00;35.80
2439;DHT22;14509;47.992;7.848;2023-03-01T10:57:38;10.60;36.00
2439;DHT22;14509;47.992;7.848;2023-03-01T10:59:42;10.50;35.90
2439;DHT22;14509;47.992;7.848;2023-03-01T11:01:43;10.60;35.70
2439;DHT22;14509;47.992;7.848;2023-03-01T11:04:07;10.70;35.90
2439;DHT22;14509;47.992;7.848;2023-03-01T11:06:21;10.60;36.00
2439;DHT22;14509;47.992;7.848;2023-03-01T11:08:38;10.70;36.00
2439;DHT22;14509;47.992;7.848;2023-03-01T11:10:42;10.60;36.10
2439;DHT22;14509;47.992;7.848;2023-03-01T11:12:44;10.70;36.20
2439;DHT22;14509;47.992;7.848;2023-03-01T11:14:47;10.80;36.20
2439;DHT22;14509;47.992;7.848;2023-03-01T11:16:59;10.80;36.10
2439;DHT22;14509;47.992;7.848;2023-03-01T11:19:17;10.80;36.10
2439;DHT22;14509;47.992;7.848;2023-03-01T11:21:20;10.80;36.10
2439;DHT22;14509;47.992;7.848;2023-03-01T11:23:23;10.90;35.60
2439;DHT22;14509;47.992;7.848;2023-03-01T11:25:27;10.90;35.90
2439;DHT22;14509;47.992;7.848;2023-03-01T11:27:33;11.20;36.30
2439;DHT22;14509;47.992;7.848;2023-03-01T11:29:39;11.20;35.70
2439;DHT22;14509;47.992;7.848;2023-03-01T11:31:42;11.20;35.20
2439;DHT22;14509;47.992;7.848;2023-03-01T11:33:47;11.30;35.20
2439;DHT22;14509;47.992;7.848;2023-03-01T11:35:55;11.50;35.40
2439;DHT22;14509;47.992;7.848;2023-03-01T11:38:07;11.30;35.10
2439;DHT22;14509;47.992;7.848;2023-03-01T11:40:17;11.30;35.10
2439;DHT22;14509;47.992;7.848;2023-03-01T11:42:30;11.30;35.20
2439;DHT22;14509;47.992;7.848;2023-03-01T11:44:39;11.10;35.40
2439;DHT22;14509;47.992;7.848;2023-03-01T11:47:07;11.10;35.40
2439;DHT22;14509;47.992;7.848;2023-03-01T11:49:35;11.10;35.60
2439;DHT22;14509;47.992;7.848;2023-03-01T11:51:50;11.30;35.80
2439;DHT22;14509;47.992;7.848;2023-03-01T11:54:12;11.50;35.60
2439;DHT22;14509;47.992;7.848;2023-03-01T11:56:23;11.20;35.50
2439;DHT22;14509;47.992;7.848;2023-03-01T11:58:43;11.30;36.20
2439;DHT22;14509;47.992;7.848;2023-03-01T12:01:02;11.30;35.50
2439;DHT22;14509;47.992;7.848;2023-03-01T12:03:28;11.30;35.40
2439;DHT22;14509;47.992;7.848;2023-03-01T12:05:49;11.30;35.10
2439;DHT22;14509;47.992;7.848;2023-03-01T12:07:58;11.50;35.40
2439;DHT22;14509;47.992;7.848;2023-03-01T12:10:19;11.00;35.30
2439;DHT22;14509;47.992;7.848;2023-03-01T12:12:32;10.90;35.30
2439;DHT22;14509;47.992;7.848;2023-03-01T12:14:52;10.90;35.60
2439;DHT22;14509;47.992;7.848;2023-03-01T12:17:12;10.80;35.50
2439;DHT22;14509;47.992;7.848;2023-03-01T12:19:35;10.80;35.50
2439;DHT22;14509;47.992;7.848;2023-03-01T12:21:52;10.90;35.50
2439;DHT22;14509;47.992;7.848;2023-03-01T12:26:22;11.10;35.50
2439;DHT22;14509;47.992;7.848;2023-03-01T12:28:42;11.30;34.80
2439;DHT22;14509;47.992;7.848;2023-03-01T12:33:38;11.90;33.90
2439;DHT22;14509;47.992;7.848;2023-03-01T12:38:30;12.60;33.00
2439;DHT22;14509;47.992;7.848;2023-03-01T12:40:58;12.90;32.60
2439;DHT22;14509;47.992;7.848;2023-03-01T12:43:11;13.20;31.70
2439;DHT22;14509;47.992;7.848;2023-03-01T12:45:39;13.50;30.90
2439;DHT22;14509;47.992;7.848;2023-03-01T12:47:58;13.80;31.00
2439;DHT22;14509;47.992;7.848;2023-03-01T12:50:10;14.40;29.80
2439;DHT22;14509;47.992;7.848;2023-03-01T12:52:16;14.30;29.50
2439;DHT22;14509;47.992;7.848;2023-03-01T12:54:26;14.50;29.30
2439;DHT22;14509;47.992;7.848;2023-03-01T12:56:31;14.80;29.20
2439;DHT22;14509;47.992;7.848;2023-03-01T12:58:38;15.10;28.90
2439;DHT22;14509;47.992;7.848;2023-03-01T13:00:49;15.20;28.20
2439;DHT22;14509;47.992;7.848;2023-03-01T13:02:59;15.40;28.20
2439;DHT22;14509;47.992;7.848;2023-03-01T13:05:19;15.60;28.00
2439;DHT22;14509;47.992;7.848;2023-03-01T13:07:30;15.70;27.80
2439;DHT22;14509;47.992;7.848;2023-03-01T13:09:40;15.70;27.10
2439;DHT22;14509;47.992;7.848;2023-03-01T13:11:45;15.50;27.60
2439;DHT22;14509;47.992;7.848;2023-03-01T13:13:47;15.30;27.80
2439;DHT22;14509;47.992;7.848;2023-03-01T13:15:49;15.30;27.90
2439;DHT22;14509;47.992;7.848;2023-03-01T13:17:53;15.20;28.00
2439;DHT22;14509;47.992;7.848;2023-03-01T13:19:57;15.20;28.10
2439;DHT22;14509;47.992;7.848;2023-03-01T13:22:27;15.20;28.20
2439;DHT22;14509;47.992;7.848;2023-03-01T13:24:39;15.20;27.90
2439;DHT22;14509;47.992;7.848;2023-03-01T13:27:09;15.20;27.80
2439;DHT22;14509;47.992;7.848;2023-03-01T13:29:25;15.30;28.10
2439;DHT22;14509;47.992;7.848;2023-03-01T13:31:58;15.30;27.80
2439;DHT22;14509;47.992;7.848;2023-03-01T13:34:06;15.30;27.90
2439;DHT22;14509;47.992;7.848;2023-03-01T13:36:45;15.40;27.80
2439;DHT22;14509;47.992;7.848;2023-03-01T13:38:56;15.40;27.50
2439;DHT22;14509;47.992;7.848;2023-03-01T13:40:59;15.20;27.40
2439;DHT22;14509;47.992;7.848;2023-03-01T13:43:25;15.20;28.40